Time;durP1;ratioP1;P1;durP2;ratioP2;P2;SDS_P1;SDS_P2;PMS_P1;PMS_P2;Temp;Humidity;BMP_temperature;BMP_pressure;BME280_temperature;BME280_humidity;BME280_pressure;Samples;Min_cycle;Max_cycle;Signal;HPM_P1;HPM_P2
2021/10/13 02:14:14;;;;;;;;;;;;;;;6.99;100.00;100209.38;4970910;28;19933;-81
2021/10/13 02:16:42;;;;;;;;;;;;;;;7.03;100.00;100218.94;4984653;28;19925;-78
2021/10/13 02:19:09;;;;;;;;;;;;;;;7.03;100.00;100211.03;4983029;28;19925;-80
2021/10/13 02:21:36;;;;;;;;;;;;;;;7.10;100.00;100209.16;4984246;28;19925;-81
2021/10/13 02:24:03;;;;;;;;;;;;;;;7.20;100.00;100220.34;4985104;28;19980;-80
2021/10/13 02:26:30;;;;;;;;;;;;;;;7.25;100.00;100221.13;4983343;28;19922;-80
2021/10/13 02:29:02;;;;;;;;;;;;;;;7.27;100.00;100222.81;4984268;28;19949;-80
2021/10/13 02:31:27;;;;;;;;;;;;;;;7.31;100.00;100218.34;4984315;28;20384;-79
2021/10/13 02:33:53;;;;;;;;;;;;;;;7.36;100.00;100224.38;4984274;28;20013;-80
2021/10/13 02:36:18;;;;;;;;;;;;;;;7.36;100.00;100227.00;4984186;28;20285;-80
2021/10/13 02:38:43;;;;;;;;;;;;;;;7.39;100.00;100224.31;4984418;28;19917;-80
2021/10/13 02:41:08;;;;;;;;;;;;;;;7.42;100.00;100226.00;4983268;28;20004;-81
2021/10/13 02:43:34;;;;;;;;;;;;;;;7.48;100.00;100225.84;4984736;28;19925;-80
2021/10/13 02:46:04;;;;;;;;;;;;;;;7.52;100.00;100229.31;4984184;28;20376;-80
2021/10/13 02:48:31;;;;;;;;;;;;;;;7.54;100.00;100227.50;4983051;28;19922;-80
2021/10/13 02:50:59;;;;;;;;;;;;;;;7.52;100.00;100239.84;4983511;28;19918;-80
2021/10/13 02:53:43;;;;;;;;;;;;;;;7.61;100.00;100247.53;4982728;28;20049;-81
2021/10/13 02:56:14;;;;;;;;;;;;;;;7.93;100.00;100249.41;4982596;28;19930;-81
2021/10/13 02:58:46;;;;;;;;;;;;;;;7.95;100.00;100247.59;4998533;28;19922;-80
2021/10/13 03:01:14;;;;;;;;;;;;;;;7.94;100.00;100245.00;4983845;28;19965;-81
2021/10/13 03:03:46;;;;;;;;;;;;;;;7.93;100.00;100248.53;4982497;28;20401;-81
2021/10/13 03:06:12;;;;;;;;;;;;;;;7.93;100.00;100251.16;4983750;28;19918;-81
2021/10/13 03:08:38;;;;;;;;;;;;;;;7.93;100.00;100251.16;4983782;28;19917;-81
2021/10/13 03:11:04;;;;;;;;;;;;;;;7.94;100.00;100245.00;4981238;28;19919;-81
2021/10/13 03:13:33;;;;;;;;;;;;;;;7.98;100.00;100244.03;4981666;28;19922;-81
2021/10/13 03:16:00;;;;;;;;;;;;;;;7.95;100.00;100249.38;4981898;28;19940;-80
2021/10/13 03:18:26;;;;;;;;;;;;;;;7.97;100.00;100250.19;4983837;28;20281;-81
2021/10/13 03:20:52;;;;;;;;;;;;;;;8.00;100.00;100250.97;4982456;28;19922;-80
2021/10/13 03:23:18;;;;;;;;;;;;;;;8.00;100.00;100258.91;4984166;28;19942;-80
2021/10/13 03:25:44;;;;;;;;;;;;;;;8.02;100.00;100253.56;4982061;28;19918;-81
2021/10/13 03:28:09;;;;;;;;;;;;;;;8.03;100.00;100257.97;4982889;28;19921;-81
2021/10/13 03:30:34;;;;;;;;;;;;;;;8.04;100.00;100251.78;4983352;28;20143;-80
2021/10/13 08:04:41;;;;;;;;;;;;;;;4.18;91.43;100522.38;4994622;28;19932;-81
2021/10/13 08:07:06;;;;;;;;;;;;;;;4.21;91.33;100524.09;5002621;28;19921;-81
2021/10/13 08:09:32;;;;;;;;;;;;;;;4.24;91.70;100530.19;4992106;28;19921;-81
2021/10/13 08:11:58;;;;;;;;;;;;;;;4.23;91.64;100523.22;5002222;28;19925;-81
2021/10/13 08:14:23;;;;;;;;;;;;;;;4.31;91.93;100529.28;5002293;28;19926;-80
2021/10/13 08:16:48;;;;;;;;;;;;;;;4.30;90.94;100530.16;4984564;28;19924;-81
2021/10/13 08:19:13;;;;;;;;;;;;;;;4.28;90.01;100531.06;5001446;28;20017;-80
2021/10/13 08:21:39;;;;;;;;;;;;;;;4.38;89.82;100531.88;4985314;28;19917;-81
2021/10/13 08:24:04;;;;;;;;;;;;;;;4.39;89.46;100538.84;5002201;28;19944;-80
2021/10/13 08:26:30;;;;;;;;;;;;;;;4.42;88.89;100537.09;4985384;28;19918;-81
2021/10/13 08:28:55;;;;;;;;;;;;;;;4.40;88.30;100530.97;5002299;28;20435;-81
2021/10/13 08:31:21;;;;;;;;;;;;;;;4.46;87.67;100545.81;4983076;28;20009;-81
2021/10/13 08:33:47;;;;;;;;;;;;;;;4.50;87.56;100543.19;5002091;28;19917;-81
2021/10/13 08:36:13;;;;;;;;;;;;;;;4.51;87.10;100531.78;4992991;28;19918;-81
2021/10/13 08:38:38;;;;;;;;;;;;;;;4.58;87.11;100535.25;4979885;28;19924;-81
2021/10/13 08:41:05;;;;;;;;;;;;;;;4.60;86.79;100537.88;5000607;28;19924;-81
2021/10/13 08:43:31;;;;;;;;;;;;;;;4.62;86.56;100539.59;5000649;28;19925;-80
2021/10/13 08:45:56;;;;;;;;;;;;;;;4.61;86.28;100550.09;5000095;28;19913;-81
2021/10/13 08:48:21;;;;;;;;;;;;;;;4.68;86.43;100547.44;5002642;28;19925;-81
2021/10/13 08:50:49;;;;;;;;;;;;;;;4.73;86.57;100550.03;5004674;28;20383;-81
2021/10/13 08:53:17;;;;;;;;;;;;;;;4.71;86.62;100551.81;4990656;28;19914;-81
2021/10/13 08:55:43;;;;;;;;;;;;;;;4.78;86.58;100553.50;4980746;28;19918;-80
2021/10/13 08:58:11;;;;;;;;;;;;;;;4.78;86.40;100553.50;5004230;28;19917;-81
2021/10/13 09:00:36;;;;;;;;;;;;;;;4.78;86.32;100555.25;5005363;28;19918;-81
2021/10/13 09:03:01;;;;;;;;;;;;;;;4.87;86.60;100566.56;5004043;28;20365;-80
2021/10/13 09:05:27;;;;;;;;;;;;;;;4.87;86.27;100565.69;5005726;28;20008;-81
2021/10/13 09:07:53;;;;;;;;;;;;;;;4.85;86.11;100567.44;5004931;28;19949;-81
2021/10/13 09:10:44;;;;;;;;;;;;;;;4.93;86.34;100572.66;5005522;28;19925;-80
2021/10/13 09:13:17;;;;;;;;;;;;;;;4.95;86.02;100578.78;4992237;28;20369;-81
2021/10/13 09:15:50;;;;;;;;;;;;;;;4.96;85.99;100576.09;4994522;28;19922;-80
2021/10/13 09:18:15;;;;;;;;;;;;;;;4.99;85.97;100564.72;4993422;28;20292;-81
2021/10/13 09:20:41;;;;;;;;;;;;;;;5.00;85.96;100562.09;4995222;28;19922;-81
2021/10/13 09:23:17;;;;;;;;;;;;;;;5.05;86.31;100562.91;5005735;28;19929;-81
2021/10/13 09:25:59;;;;;;;;;;;;;;;5.09;86.39;100558.53;5005361;28;19954;-81
2021/10/13 09:28:24;;;;;;;;;;;;;;;5.11;86.06;100562.00;4988197;28;19924;-81
2021/10/13 09:30:49;;;;;;;;;;;;;;;5.14;85.96;100563.72;4995181;28;20008;-82
2021/10/13 09:33:16;;;;;;;;;;;;;;;5.13;85.94;100554.13;5003793;28;19917;-81
2021/10/13 09:35:43;;;;;;;;;;;;;;;5.15;85.68;100568.09;4980011;28;19972;-81
2021/10/13 09:38:11;;;;;;;;;;;;;;;5.20;86.01;100556.69;4995188;28;19957;-81
2021/10/13 09:40:36;;;;;;;;;;;;;;;5.22;85.95;100565.41;4995174;28;19921;-82
2021/10/13 09:43:01;;;;;;;;;;;;;;;5.23;86.09;100556.66;5005015;28;20380;-82
2021/10/13 09:45:28;;;;;;;;;;;;;;;5.27;86.04;100547.00;5003513;28;19925;-81
2021/10/13 09:48:00;;;;;;;;;;;;;;;5.30;85.95;100546.06;5003420;28;20108;-80
2021/10/13 09:50:42;;;;;;;;;;;;;;;5.30;86.04;100548.69;5004454;28;19918;-81
2021/10/13 09:53:14;;;;;;;;;;;;;;;5.33;86.56;100552.19;5005252;28;19977;-82
2021/10/13 09:55:39;;;;;;;;;;;;;;;5.36;86.76;100551.28;5004675;28;19922;-82
2021/10/13 09:58:04;;;;;;;;;;;;;;;5.39;86.88;100553.88;5004560;28;19972;-81
2021/10/13 10:00:30;;;;;;;;;;;;;;;5.40;87.08;100553.00;5004959;28;20395;-81
2021/10/13 10:02:56;;;;;;;;;;;;;;;5.40;87.04;100545.13;4988727;28;19967;-81
2021/10/13 10:05:27;;;;;;;;;;;;;;;5.45;87.09;100561.72;4977013;28;19922;-81
2021/10/13 10:07:59;;;;;;;;;;;;;;;5.43;87.03;100564.34;4976736;28;19918;-81
2021/10/13 10:10:25;;;;;;;;;;;;;;;5.49;87.12;100570.44;4994642;28;20020;-81
2021/10/13 10:12:59;;;;;;;;;;;;;;;5.50;87.58;100562.53;4994826;28;20016;-80
2021/10/13 10:15:29;;;;;;;;;;;;;;;5.54;87.55;100566.03;4976825;28;19922;-81
2021/10/13 10:17:55;;;;;;;;;;;;;;;5.54;87.51;100568.66;4993059;28;19989;-81
2021/10/13 10:20:52;;;;;;;;;;;;;;;5.54;87.61;100566.88;4976148;28;19918;-81
2021/10/13 10:23:27;;;;;;;;;;;;;;;5.59;87.49;100569.47;4967321;28;19914;-80
2021/10/13 10:25:52;;;;;;;;;;;;;;;5.60;87.57;100569.44;4993603;28;19944;-82
2021/10/13 10:28:36;;;;;;;;;;;;;;;5.62;87.55;100574.69;4994031;28;20361;-81
2021/10/13 10:31:20;;;;;;;;;;;;;;;5.63;87.59;100566.78;4976731;28;19925;-81
2021/10/13 10:33:49;;;;;;;;;;;;;;;5.69;88.23;100578.13;4994163;28;19961;-81
2021/10/13 10:36:16;;;;;;;;;;;;;;;5.71;88.32;100568.47;4993292;28;20261;-81
2021/10/13 10:38:48;;;;;;;;;;;;;;;5.68;88.07;100572.00;4976517;28;20328;-82
2021/10/13 10:41:13;;;;;;;;;;;;;;;5.71;88.11;100564.09;4993372;28;20287;-81
2021/10/13 10:43:38;;;;;;;;;;;;;;;5.75;88.25;100557.91;4994100;28;19918;-80
2021/10/13 10:46:04;;;;;;;;;;;;;;;5.80;88.62;100563.97;4993869;28;19929;-81
2021/10/13 10:48:55;;;;;;;;;;;;;;;5.83;88.75;100553.41;4990784;28;20369;-80
2021/10/13 10:51:20;;;;;;;;;;;;;;;5.88;89.38;100561.25;4992450;28;19925;-81
2021/10/13 10:53:46;;;;;;;;;;;;;;;5.88;89.32;100555.13;4993676;28;19917;-81
2021/10/13 10:56:15;;;;;;;;;;;;;;;5.91;89.52;100555.09;4976333;28;19925;-82
2021/10/13 10:58:43;;;;;;;;;;;;;;;5.95;89.63;100557.69;4975744;28;19953;-80
2021/10/13 11:01:13;;;;;;;;;;;;;;;5.99;89.91;100553.28;4975976;28;19918;-81
2021/10/13 11:03:39;;;;;;;;;;;;;;;5.99;89.96;100559.41;4972936;28;19933;-81
2021/10/13 11:06:12;;;;;;;;;;;;;;;6.03;89.90;100554.09;5003172;28;19926;-81
2021/10/13 11:08:58;;;;;;;;;;;;;;;5.99;89.75;100555.91;4997684;28;20052;-81
2021/10/13 11:11:26;;;;;;;;;;;;;;;6.06;89.92;100554.94;4969653;28;20344;-81
2021/10/13 11:14:05;;;;;;;;;;;;;;;6.04;89.92;100551.47;5003166;28;20407;-81
2021/10/13 11:16:31;;;;;;;;;;;;;;;6.06;89.85;100544.41;5001743;28;19917;-81
2021/10/13 11:19:06;;;;;;;;;;;;;;;6.07;89.97;100548.78;4984594;28;19918;-80
2021/10/13 11:21:32;;;;;;;;;;;;;;;6.08;89.80;100547.91;4985292;28;19921;-81
2021/10/13 11:23:58;;;;;;;;;;;;;;;6.11;89.96;100550.50;4985078;28;19964;-81
2021/10/13 11:26:27;;;;;;;;;;;;;;;6.17;90.45;100544.28;4985352;28;19922;-82
2021/10/13 11:28:52;;;;;;;;;;;;;;;6.21;90.58;100548.63;5002594;28;19918;-81
2021/10/13 11:31:17;;;;;;;;;;;;;;;6.23;90.87;100545.97;5001891;28;19992;-81
2021/10/13 11:33:43;;;;;;;;;;;;;;;6.25;91.03;100541.56;5002370;28;19921;-80
2021/10/13 11:36:08;;;;;;;;;;;;;;;6.28;91.09;100544.16;5002980;28;19921;-81
2021/10/13 11:38:35;;;;;;;;;;;;;;;6.31;91.31;100546.75;4985019;28;20403;-81
2021/10/13 11:41:05;;;;;;;;;;;;;;;6.32;91.65;100544.09;5002686;28;20357;-81
2021/10/13 11:43:30;;;;;;;;;;;;;;;6.35;91.82;100541.44;4983523;28;19922;-81
2021/10/13 11:45:55;;;;;;;;;;;;;;;6.37;91.79;100536.13;4984924;28;19925;-81
2021/10/13 11:48:24;;;;;;;;;;;;;;;6.36;91.57;100531.75;5001119;28;20041;-81
2021/10/13 11:50:50;;;;;;;;;;;;;;;6.39;91.36;100536.97;5002485;28;19924;-80
2021/10/13 11:53:15;;;;;;;;;;;;;;;6.41;91.38;100539.59;5001903;28;19922;-81
2021/10/13 11:55:41;;;;;;;;;;;;;;;6.43;91.53;100541.31;5002837;28;19925;-82
2021/10/13 11:58:06;;;;;;;;;;;;;;;6.46;91.77;100548.28;5002147;28;20301;-81
2021/10/13 12:00:32;;;;;;;;;;;;;;;6.45;91.78;100544.81;4984770;28;19921;-82
2021/10/13 12:03:24;;;;;;;;;;;;;;;6.48;91.82;100539.50;4999859;28;19922;-81
2021/10/13 12:05:58;;;;;;;;;;;;;;;6.49;91.76;100537.72;5001083;28;20004;-80
2021/10/13 12:08:31;;;;;;;;;;;;;;;6.52;91.91;100537.69;5002242;28;19922;-80
2021/10/13 12:11:06;;;;;;;;;;;;;;;6.52;91.75;100542.94;5002428;28;20376;-80
2021/10/13 12:13:34;;;;;;;;;;;;;;;6.38;90.62;100539.63;5001953;28;19918;-80
2021/10/13 12:16:00;;;;;;;;;;;;;;;5.14;87.45;100551.47;5001338;28;19917;-80
2021/10/13 12:18:27;;;;;;;;;;;;;;;4.73;87.37;100550.03;5000732;28;19990;-81
2021/10/13 12:21:07;;;;;;;;;;;;;;;4.47;87.27;100548.44;4984186;28;19964;-81
2021/10/13 12:23:38;;;;;;;;;;;;;;;4.25;87.29;100549.44;5006530;28;20394;-81
2021/10/13 12:26:19;;;;;;;;;;;;;;;4.18;87.71;100546.84;5005558;28;19921;-81
2021/10/13 12:28:46;;;;;;;;;;;;;;;3.95;88.01;100543.44;5006283;28;19997;-80
2021/10/13 12:31:13;;;;;;;;;;;;;;;3.91;88.75;100541.69;5002140;28;19976;-80
2021/10/13 12:33:46;;;;;;;;;;;;;;;3.75;88.79;100539.13;5004486;28;19987;-80
2021/10/13 12:36:11;;;;;;;;;;;;;;;3.72;88.88;100540.88;5005317;28;20380;-81
2021/10/13 12:38:40;;;;;;;;;;;;;;;3.59;88.66;100537.41;5006357;28;19918;-81
2021/10/13 12:41:07;;;;;;;;;;;;;;;3.53;88.96;100534.84;5005956;28;20089;-82
2021/10/13 12:43:38;;;;;;;;;;;;;;;3.41;89.24;100536.56;5005750;28;19929;-81
2021/10/13 12:46:18;;;;;;;;;;;;;;;3.43;90.19;100537.47;5006109;28;19926;-80
2021/10/13 12:48:44;;;;;;;;;;;;;;;3.57;91.39;100539.16;4987948;28;19917;-80
2021/10/13 12:51:12;;;;;;;;;;;;;;;4.32;100.00;100532.78;5005493;28;19953;-81
2021/10/13 12:53:39;;;;;;;;;;;;;;;4.83;100.00;100535.06;5005555;28;19921;-82
2021/10/13 12:56:06;;;;;;;;;;;;;;;5.12;100.00;100529.56;5005758;28;19917;-81
2021/10/13 12:58:31;;;;;;;;;;;;;;;5.32;100.00;100531.19;5006408;28;19913;-82
2021/10/13 13:00:57;;;;;;;;;;;;;;;5.49;100.00;100525.75;5005897;28;19924;-81
2021/10/13 13:03:23;;;;;;;;;;;;;;;5.58;100.00;100523.88;5003944;28;20385;-81
2021/10/13 13:05:49;;;;;;;;;;;;;;;5.63;100.00;100529.09;4987942;28;20290;-82
2021/10/13 13:08:14;;;;;;;;;;;;;;;5.67;100.00;100522.94;5005263;28;19922;-82
2021/10/13 13:10:39;;;;;;;;;;;;;;;5.64;100.00;100521.19;5005466;28;20292;-81
2021/10/13 13:13:05;;;;;;;;;;;;;;;5.58;100.00;100536.16;5005463;28;20001;-82
2021/10/13 13:15:30;;;;;;;;;;;;;;;5.50;100.00;100528.34;5005131;28;19924;-82
2021/10/13 13:17:55;;;;;;;;;;;;;;;5.28;100.00;100527.69;5004245;28;19921;-81
2021/10/13 13:20:20;;;;;;;;;;;;;;;5.20;100.00;100526.88;5005177;28;20270;-81
2021/10/13 13:22:46;;;;;;;;;;;;;;;5.14;100.00;100529.56;4987724;28;19918;-82
2021/10/13 13:25:11;;;;;;;;;;;;;;;5.17;100.00;100534.78;5005517;28;19921;-82
2021/10/13 13:27:36;;;;;;;;;;;;;;;5.17;100.00;100530.44;5005048;28;19917;-82
2021/10/13 13:30:02;;;;;;;;;;;;;;;5.31;100.00;100529.44;5005075;28;20381;-81
2021/10/13 13:32:27;;;;;;;;;;;;;;;5.57;100.00;100529.19;5002918;28;19917;-82
2021/10/13 13:34:53;;;;;;;;;;;;;;;5.79;100.00;100529.78;5005508;28;20353;-81
2021/10/13 13:37:18;;;;;;;;;;;;;;;6.08;100.00;100524.25;5005177;28;20289;-83
2021/10/13 13:39:44;;;;;;;;;;;;;;;6.22;100.00;100516.13;4983246;28;20392;-82
2021/10/13 13:42:09;;;;;;;;;;;;;;;6.39;100.00;100520.31;5001533;28;19917;-82
2021/10/13 13:44:34;;;;;;;;;;;;;;;6.55;100.00;100521.84;5004670;28;19917;-82
2021/10/13 13:47:00;;;;;;;;;;;;;;;6.69;100.00;100519.00;4985946;28;20012;-81
2021/10/13 13:49:25;;;;;;;;;;;;;;;6.75;100.00;100525.94;5003966;28;19925;-81
2021/10/13 13:51:50;;;;;;;;;;;;;;;6.84;100.00;100525.78;5002674;28;20377;-82
2021/10/13 13:54:15;;;;;;;;;;;;;;;6.97;100.00;100529.97;5004296;28;19917;-80
2021/10/13 13:56:41;;;;;;;;;;;;;;;6.98;100.00;100526.44;5004436;28;19972;-81
2021/10/13 13:59:06;;;;;;;;;;;;;;;7.02;100.00;100533.41;5004816;28;20438;-82
2021/10/13 14:01:31;;;;;;;;;;;;;;;7.11;100.00;100534.16;5003377;28;19918;-80
2021/10/13 14:03:56;;;;;;;;;;;;;;;7.13;100.00;100535.84;4989833;28;19926;-81
2021/10/13 14:06:22;;;;;;;;;;;;;;;7.15;100.00;100533.19;4983593;28;19929;-81
2021/10/13 14:08:47;;;;;;;;;;;;;;;7.21;100.00;100543.63;4984777;28;19949;-82
2021/10/13 14:11:12;;;;;;;;;;;;;;;7.25;100.00;100540.91;4975143;28;20327;-81
2021/10/13 14:13:37;;;;;;;;;;;;;;;7.29;100.00;100541.72;4990867;28;19981;-81
2021/10/13 14:16:03;;;;;;;;;;;;;;;7.32;100.00;100539.03;4988455;28;19921;-81
2021/10/13 14:18:29;;;;;;;;;;;;;;;7.42;100.00;100547.69;4966400;28;19926;-82
2021/10/13 14:20:56;;;;;;;;;;;;;;;7.44;100.00;100538.84;4991948;28;20064;-81
2021/10/13 14:23:21;;;;;;;;;;;;;;;7.45;100.00;100540.59;4994353;28;19921;-81
2021/10/13 14:25:46;;;;;;;;;;;;;;;6.98;100.00;100542.25;4977048;28;20384;-82
2021/10/13 14:28:12;;;;;;;;;;;;;;;5.43;100.00;100545.94;4994097;28;20016;-80
2021/10/13 14:30:37;;;;;;;;;;;;;;;4.64;100.00;100553.59;4994312;28;19982;-80
2021/10/13 14:33:02;;;;;;;;;;;;;;;4.18;100.00;100553.84;4993211;28;19925;-81
2021/10/13 14:35:28;;;;;;;;;;;;;;;3.91;100.00;100560.03;4994164;28;19922;-81
2021/10/13 14:37:53;;;;;;;;;;;;;;;3.70;100.00;100564.50;4994146;28;19926;-82
2021/10/13 14:40:19;;;;;;;;;;;;;;;3.66;100.00;100568.00;4967293;28;19925;-82
2021/10/13 14:42:44;;;;;;;;;;;;;;;3.52;100.00;100569.75;4974135;28;19922;-81
2021/10/13 14:45:12;;;;;;;;;;;;;;;3.37;98.75;100566.28;4983709;28;19929;-80
2021/10/13 14:47:37;;;;;;;;;;;;;;;3.22;97.53;100568.91;4972575;28;19924;-82
2021/10/13 14:50:03;;;;;;;;;;;;;;;3.30;97.57;100571.53;4974367;28;19922;-81
2021/10/13 14:52:28;;;;;;;;;;;;;;;3.15;96.28;100564.56;4984242;28;19969;-81
2021/10/13 14:54:53;;;;;;;;;;;;;;;3.06;95.51;100570.66;4982899;28;20020;-81
2021/10/13 14:57:18;;;;;;;;;;;;;;;2.94;95.03;100563.66;4983759;28;19926;-80
2021/10/13 14:59:44;;;;;;;;;;;;;;;2.70;93.74;100562.75;4983933;28;19929;-81
2021/10/13 15:02:09;;;;;;;;;;;;;;;2.72;93.73;100561.00;4982804;28;19952;-82
2021/10/13 15:04:37;;;;;;;;;;;;;;;2.65;93.50;100569.75;4980215;28;19925;-81
2021/10/13 15:07:02;;;;;;;;;;;;;;;2.62;93.34;100564.50;4973594;28;19975;-81
2021/10/13 15:09:27;;;;;;;;;;;;;;;2.62;93.25;100569.72;4974164;28;20008;-81
2021/10/13 15:11:53;;;;;;;;;;;;;;;2.45;92.65;100572.28;4973296;28;20487;-82
2021/10/13 15:14:18;;;;;;;;;;;;;;;2.41;92.45;100577.50;4973462;28;20402;-81
2021/10/13 15:16:43;;;;;;;;;;;;;;;2.30;91.98;100577.50;4972290;28;20400;-81
2021/10/13 15:19:09;;;;;;;;;;;;;;;2.27;91.73;100578.34;4986615;28;19922;-83
2021/10/13 15:21:36;;;;;;;;;;;;;;;2.16;91.84;100582.66;4966891;28;19922;-82
2021/10/13 15:24:01;;;;;;;;;;;;;;;2.15;91.73;100583.53;4979698;28;19926;-82
2021/10/13 15:26:26;;;;;;;;;;;;;;;2.17;92.00;100581.78;4973195;28;19922;-82
2021/10/13 15:28:52;;;;;;;;;;;;;;;2.22;92.23;100579.19;4987249;28;20436;-83
2021/10/13 15:31:17;;;;;;;;;;;;;;;2.10;92.09;100580.88;4970397;28;20266;-83
2021/10/13 15:33:43;;;;;;;;;;;;;;;2.03;91.13;100579.13;4972019;28;19922;-83
2021/10/13 15:36:12;;;;;;;;;;;;;;;1.96;91.50;100588.69;4980567;28;19961;-82
2021/10/13 15:38:37;;;;;;;;;;;;;;;2.17;92.89;100594.84;4973712;28;19922;-81
2021/10/13 15:41:05;;;;;;;;;;;;;;;2.48;95.87;100587.13;4985526;28;19925;-82
2021/10/13 15:43:31;;;;;;;;;;;;;;;2.79;97.64;100584.59;4970976;28;20420;-83
2021/10/13 15:45:57;;;;;;;;;;;;;;;3.00;100.00;100587.25;4983558;28;19965;-83
2021/10/13 15:48:23;;;;;;;;;;;;;;;3.17;100.00;100578.50;4988942;28;20297;-82
2021/10/13 15:50:50;;;;;;;;;;;;;;;3.24;100.00;100569.81;4969047;28;19918;-83
2021/10/13 15:53:16;;;;;;;;;;;;;;;3.28;100.00;100568.91;4989648;28;19930;-83
2021/10/13 15:55:41;;;;;;;;;;;;;;;3.35;100.00;100565.41;4986728;28;20389;-83
2021/10/13 15:58:07;;;;;;;;;;;;;;;3.31;100.00;100565.41;4983382;28;20285;-83
2021/10/13 16:00:32;;;;;;;;;;;;;;;3.37;100.00;100578.53;4983766;28;19929;-83
2021/10/13 16:02:57;;;;;;;;;;;;;;;3.37;100.00;100579.38;4990924;28;19960;-82
2021/10/13 16:05:23;;;;;;;;;;;;;;;3.42;100.00;100579.38;4978014;28;19961;-84
2021/10/13 16:07:48;;;;;;;;;;;;;;;3.38;100.00;100581.13;4980702;28;19914;-83
2021/10/13 16:10:14;;;;;;;;;;;;;;;3.44;100.00;100581.09;5000776;28;19928;-83
2021/10/13 16:12:40;;;;;;;;;;;;;;;4.26;100.00;100588.78;5001708;28;19922;-78
2021/10/13 16:15:06;;;;;;;;;;;;;;;4.21;100.00;100584.44;5001709;28;20333;-82
2021/10/13 16:17:31;;;;;;;;;;;;;;;3.77;100.00;100587.19;5000799;28;19944;-81
2021/10/13 16:19:57;;;;;;;;;;;;;;;4.94;100.00;100584.91;5001607;28;19926;-84
2021/10/13 16:22:22;;;;;;;;;;;;;;;4.10;100.00;100590.59;5003309;28;19956;-85
2021/10/13 16:24:48;;;;;;;;;;;;;;;3.89;100.00;100591.50;5001981;28;19975;-82
2021/10/13 16:27:14;;;;;;;;;;;;;;;3.77;100.00;100587.19;5001343;28;19921;-82
2021/10/13 16:29:39;;;;;;;;;;;;;;;3.82;100.00;100588.03;5002422;28;20002;-82
2021/10/13 16:32:06;;;;;;;;;;;;;;;3.79;100.00;100595.91;4982356;28;19918;-82
2021/10/13 16:34:31;;;;;;;;;;;;;;;3.81;100.00;100588.03;5001776;28;20288;-84
2021/10/13 16:36:57;;;;;;;;;;;;;;;3.76;100.00;100589.81;5001551;28;19929;-82
2021/10/13 16:39:22;;;;;;;;;;;;;;;3.74;100.00;100584.56;5001455;28;19926;-82
2021/10/13 16:41:48;;;;;;;;;;;;;;;3.75;100.00;100593.28;4984830;28;19918;-83
2021/10/13 16:44:13;;;;;;;;;;;;;;;3.74;100.00;100589.81;4998925;28;20423;-84
2021/10/13 16:46:39;;;;;;;;;;;;;;;3.77;100.00;100594.19;4982070;28;19924;-84
2021/10/13 16:49:04;;;;;;;;;;;;;;;3.80;100.00;100588.94;4998509;28;19922;-82
2021/10/13 16:51:29;;;;;;;;;;;;;;;3.76;100.00;100595.91;5001817;28;19922;-83
2021/10/13 16:53:55;;;;;;;;;;;;;;;3.77;100.00;100595.03;4976621;28;19918;-84
2021/10/13 16:56:20;;;;;;;;;;;;;;;3.85;100.00;100596.78;5000741;28;19925;-84
2021/10/13 16:58:45;;;;;;;;;;;;;;;3.80;100.00;100600.28;5001674;28;20391;-81
2021/10/13 17:01:13;;;;;;;;;;;;;;;3.92;100.00;100609.00;4972178;28;20000;-82
2021/10/13 17:03:40;;;;;;;;;;;;;;;3.86;100.00;100607.28;5001266;28;20017;-83
2021/10/13 17:06:05;;;;;;;;;;;;;;;3.90;100.00;100609.00;4986198;28;19921;-83
2021/10/13 17:08:30;;;;;;;;;;;;;;;3.85;100.00;100615.16;4980800;28;19921;-84
2021/10/13 17:10:55;;;;;;;;;;;;;;;3.89;100.00;100606.38;5005046;28;20020;-83
2021/10/13 17:13:21;;;;;;;;;;;;;;;3.89;99.76;100612.50;5005920;28;19921;-82
2021/10/13 17:15:46;;;;;;;;;;;;;;;3.88;99.03;100609.88;5004492;28;19970;-82
2021/10/13 17:18:11;;;;;;;;;;;;;;;3.89;98.77;100614.25;4986976;28;20311;-83
2021/10/13 17:20:36;;;;;;;;;;;;;;;3.89;97.87;100616.88;4995280;28;19925;-83
2021/10/13 17:23:02;;;;;;;;;;;;;;;3.93;97.39;100622.09;5005173;28;19927;-82
2021/10/13 17:25:28;;;;;;;;;;;;;;;4.00;96.73;100623.84;4991220;28;19926;-83
2021/10/13 17:27:53;;;;;;;;;;;;;;;4.00;95.93;100620.34;5002954;28;19921;-82
2021/10/13 17:30:19;;;;;;;;;;;;;;;3.98;95.26;100622.97;4986131;28;19922;-82
2021/10/13 17:32:44;;;;;;;;;;;;;;;4.02;94.74;100620.34;4990695;28;19933;-81
2021/10/13 17:35:10;;;;;;;;;;;;;;;4.04;94.04;100626.44;5005202;28;19941;-82
2021/10/13 17:37:35;;;;;;;;;;;;;;;3.96;93.41;100626.47;4990806;28;20011;-82
2021/10/13 17:40:00;;;;;;;;;;;;;;;3.96;93.44;100624.72;5005181;28;19928;-82
2021/10/13 17:42:26;;;;;;;;;;;;;;;3.99;93.29;100626.47;5004875;28;19968;-81
2021/10/13 17:44:51;;;;;;;;;;;;;;;4.00;93.05;100629.09;5004609;28;19929;-82
2021/10/13 17:47:19;;;;;;;;;;;;;;;4.00;92.74;100630.81;4993236;28;19925;-82
2021/10/13 17:49:44;;;;;;;;;;;;;;;3.99;92.45;100637.81;5004205;28;20041;-81
2021/10/13 17:52:09;;;;;;;;;;;;;;;4.01;92.21;100637.81;5004329;28;20042;-82
2021/10/13 17:54:35;;;;;;;;;;;;;;;4.08;91.65;100636.06;4992377;28;19922;-82
2021/10/13 17:57:00;;;;;;;;;;;;;;;4.07;91.44;100643.06;4995423;28;19917;-82
2021/10/13 17:59:25;;;;;;;;;;;;;;;3.98;91.57;100641.31;5001376;28;19925;-82
2021/10/13 18:01:51;;;;;;;;;;;;;;;3.93;92.30;100644.84;4985962;28;19921;-82
2021/10/13 18:04:16;;;;;;;;;;;;;;;3.93;92.18;100640.47;5003173;28;19932;-81
2021/10/13 18:06:42;;;;;;;;;;;;;;;3.94;92.20;100651.81;5004322;28;19918;-83
2021/10/13 18:09:07;;;;;;;;;;;;;;;3.93;92.09;100655.34;4994138;28;20435;-82
2021/10/13 18:11:32;;;;;;;;;;;;;;;3.94;91.92;100657.06;5003280;28;20109;-81
2021/10/13 18:13:58;;;;;;;;;;;;;;;3.96;91.79;100665.81;5004149;28;20276;-82
2021/10/13 18:16:23;;;;;;;;;;;;;;;3.97;91.40;100662.31;5003106;28;19929;-82
2021/10/13 18:18:48;;;;;;;;;;;;;;;3.97;91.19;100672.78;5004233;28;19918;-82
2021/10/13 18:21:14;;;;;;;;;;;;;;;3.97;90.99;100671.06;4991952;28;19917;-82
2021/10/13 18:23:39;;;;;;;;;;;;;;;4.00;90.64;100672.78;4981738;28;19922;-82
2021/10/13 18:26:05;;;;;;;;;;;;;;;3.98;90.28;100678.03;4982282;28;20395;-82
2021/10/13 18:28:30;;;;;;;;;;;;;;;4.03;90.31;100672.78;4994673;28;19922;-82
2021/10/13 18:30:56;;;;;;;;;;;;;;;3.99;90.60;100668.44;4993382;28;19922;-82
2021/10/13 18:33:21;;;;;;;;;;;;;;;4.07;90.26;100671.91;4980607;28;19918;-82
2021/10/13 18:35:46;;;;;;;;;;;;;;;4.05;89.96;100671.03;4992658;28;19922;-82
2021/10/13 18:38:12;;;;;;;;;;;;;;;4.08;89.68;100672.78;4994628;28;19968;-82
2021/10/13 18:40:37;;;;;;;;;;;;;;;4.10;89.43;100669.28;4981195;28;19933;-81
2021/10/13 18:43:03;;;;;;;;;;;;;;;4.09;89.42;100672.78;4993995;28;19925;-81
2021/10/13 18:45:28;;;;;;;;;;;;;;;4.13;89.32;100673.63;4999250;28;20075;-81
2021/10/13 18:47:53;;;;;;;;;;;;;;;4.12;88.94;100667.53;4978758;28;19922;-81
2021/10/13 18:50:18;;;;;;;;;;;;;;;4.18;88.58;100664.88;4976631;28;20383;-81
2021/10/13 18:52:47;;;;;;;;;;;;;;;4.13;88.14;100664.03;4997280;28;19981;-82
2021/10/13 18:55:13;;;;;;;;;;;;;;;4.12;87.83;100662.28;4993794;28;20289;-81
2021/10/13 18:57:39;;;;;;;;;;;;;;;4.14;87.51;100667.53;4992879;28;19926;-80
2021/10/13 19:00:05;;;;;;;;;;;;;;;4.17;87.33;100664.91;4979561;28;19926;-82
2021/10/13 19:02:30;;;;;;;;;;;;;;;4.16;87.09;100669.28;4990727;28;20348;-82
2021/10/13 19:04:55;;;;;;;;;;;;;;;4.18;87.08;100674.53;4998279;28;19921;-81
2021/10/13 19:07:20;;;;;;;;;;;;;;;4.19;86.51;100671.00;5003647;28;19944;-79
2021/10/13 19:09:46;;;;;;;;;;;;;;;4.19;86.36;100668.38;4990478;28;19961;-80
2021/10/13 19:12:14;;;;;;;;;;;;;;;4.23;86.02;100674.47;4982764;28;19951;-81
2021/10/13 19:14:40;;;;;;;;;;;;;;;4.24;86.01;100666.59;4984523;28;20392;-81
2021/10/13 19:17:05;;;;;;;;;;;;;;;4.28;86.00;100667.50;4983496;28;19922;-81
2021/10/13 19:19:30;;;;;;;;;;;;;;;4.29;85.82;100675.34;4985086;28;19976;-81
2021/10/13 19:21:55;;;;;;;;;;;;;;;4.25;85.47;100676.22;4984041;28;19966;-81
2021/10/13 19:24:21;;;;;;;;;;;;;;;4.31;85.54;100683.22;4983636;28;19926;-81
2021/10/13 19:26:46;;;;;;;;;;;;;;;4.29;85.67;100692.84;4984278;28;19922;-81